ปักกิ่ง, Beijing

09:46 AM CST วัน กันยายน 02, 2014 (GMT +0800)
Beijing Capital | Change Station
CLOSE
Current Station
Airport
Location: Beijing,
Elevation: 115 ft
Nearby Weather Stations

Elev 115 ft 40.07 °N, 116.59 °E | Updated 16 minutes ago

Light Rain
ฝนตกเบาบาง
70 ฟาเรนไฮน์
Feels Like 70 ฟาเรนไฮน์
N
4
ลม ความผันแปร ลม from ทางทิศเหนือและทิศตะวันออกเฉียงเหนือ

วันนี้
High -- | Low -- ฟาเรนไฮน์
--% Chance of Precip.
Yesterday
High -- | Low -- ฟาเรนไฮน์
Precip. -- นิ้ว
5:41 AM 6:44 PM
เดือนเสี้ยว, 46% visible
ความดัน 29.86 นิ้ว
ทัศนวิสัย 4.3 ไมล์
เมฆ มีเมฆคลุมเป็นบางส่วน 500 ft
อุณหภูมิที่อากาศอาจจับตัวเป็นหยาดน้ำค้าง 68 ฟาเรนไฮน์
ความชื้น 94%
Rainfall 0.00 นิ้ว
Snow Depth Not available.
UV 5 out of 12
Pollen Not available.
Air Quality Not available.
Flu Activity Not available.
METAR ZBAA 020130Z 03002MPS 360V060 7000 -RA SCT005 21/20 Q1011 NOSIG

More Conditions Fewer Conditions

ความดัน 29.86 นิ้ว
ทัศนวิสัย 4.3 ไมล์
เมฆ มีเมฆคลุมเป็นบางส่วน 500 ft
อุณหภูมิที่อากาศอาจจับตัวเป็นหยาดน้ำค้าง 68 ฟาเรนไฮน์
ความชื้น 94%
Rainfall 0.00 นิ้ว
Snow Depth Not available.
UV 5 out of 12
Pollen Not available.
Air Quality Not available.
Flu Activity Not available.
METAR ZBAA 020130Z 03002MPS 360V060 7000 -RA SCT005 21/20 Q1011 NOSIG

More Conditions Fewer Conditions

10-Day Weather Forecast

Almanac

ดาราศาสตร์

Sep. 02, 2014 Rise Set
Actual Time 5:41 AM CST 6:44 PM CST
Civil Twilight 5:13 AM CST 7:12 PM CST
Nautical Twilight 4:40 AM CST 7:45 PM CST
Astronomical Twilight 4:06 AM CST 8:19 PM CST
Moon 12:52 PM CST 11:07 PM CST
Length Of Visible Light 13h 58m
ความยาวของวัน
13h 02m
Tomorrow will be 2m 32s shorter.
เดือนเสี้ยว, 46% of the Moon is Illuminated
Sep 1
เดือนเสี้ยว
Sep 2
ไตรมาสแรก
Sep 8
พระจันทร์เต็มดวง
Sep 15
ไตรมาสล่าสุด
Sep 24
New

Yesterday's Extremes

Country Highs Country Lows

Community

WunderPhotos

Upload Photos

1,749,476 photos uploaded!

Nearby

Snow Depth

Not available.

Earthquake Activity

City Distance Mag. Time & Date
No recent earthquake activity has been reported nearby.
Minimum magnitude displayed is 2.5.

Coastal Water Temperatures

สถานที่ อุณหภูมิ
No Stations Reporting

Nearby Weather Stations